createdAt,value
2018-12-08T20:35:02.275Z,4.97
2018-12-08T20:37:30.594Z,5.70
2018-12-08T20:43:07.223Z,6.20
2018-12-08T20:45:35.505Z,5.30
2018-12-08T20:48:04.900Z,5.87
2018-12-08T20:50:33.146Z,4.67
2018-12-08T20:53:01.418Z,5.00
2018-12-08T20:55:29.670Z,5.07
2018-12-08T20:58:00.219Z,5.40
2018-12-08T21:00:28.462Z,43.67
2018-12-08T21:02:56.702Z,62.13
2018-12-08T21:05:25.070Z,41.83
2018-12-08T21:07:53.342Z,34.47
2018-12-08T21:10:21.612Z,33.67
2018-12-08T21:12:51.070Z,27.77
2018-12-08T21:15:19.346Z,27.50
2018-12-08T21:17:48.262Z,28.07
2018-12-08T21:20:16.504Z,24.27
2018-12-08T21:22:44.758Z,24.50
2018-12-08T21:25:13.078Z,24.17
2018-12-08T21:27:41.294Z,23.23
2018-12-08T21:30:09.680Z,21.27
2018-12-08T21:32:37.952Z,21.07
2018-12-08T21:35:06.386Z,20.20
2018-12-08T21:37:34.687Z,20.93
2018-12-08T21:40:04.691Z,20.17
2018-12-08T21:42:32.955Z,21.30
2018-12-08T21:45:02.038Z,18.33
2018-12-08T21:47:30.271Z,19.43
2018-12-08T21:49:58.522Z,17.63
2018-12-08T21:52:26.800Z,18.23
2018-12-08T21:54:55.095Z,17.50
2018-12-08T21:57:23.406Z,17.40
2018-12-08T21:59:51.705Z,17.47
2018-12-08T22:02:19.973Z,15.80
2018-12-08T22:04:48.276Z,15.17
2018-12-08T22:07:16.534Z,15.47
2018-12-08T22:09:44.800Z,14.30
2018-12-08T22:12:13.131Z,14.47
2018-12-08T22:14:47.111Z,13.93
2018-12-08T22:17:15.407Z,13.70
2018-12-08T22:19:43.656Z,12.73
2018-12-08T22:22:11.880Z,14.37
2018-12-08T22:24:40.137Z,12.83
2018-12-08T22:27:09.357Z,13.10
2018-12-08T22:29:37.606Z,11.57
2018-12-08T22:32:05.848Z,12.53
2018-12-08T22:34:36.213Z,10.83
2018-12-08T22:37:04.462Z,12.33
2018-12-08T22:39:32.755Z,9.97
2018-12-08T22:42:00.997Z,10.50
2018-12-08T22:44:29.264Z,10.87
2018-12-08T22:46:58.101Z,10.40
2018-12-08T22:49:26.327Z,10.10
2018-12-08T22:51:54.604Z,9.97
2018-12-08T22:54:22.847Z,8.90
2018-12-08T22:56:51.127Z,8.63
2018-12-08T22:59:19.387Z,9.50
2018-12-08T23:01:47.666Z,9.57
2018-12-08T23:04:15.921Z,8.97
2018-12-08T23:07:01.486Z,9.33
2018-12-08T23:09:29.719Z,8.53
2018-12-08T23:11:57.963Z,7.67
2018-12-08T23:14:26.243Z,7.70
2018-12-08T23:16:54.536Z,8.60
2018-12-08T23:19:22.793Z,8.17
2018-12-08T23:21:51.076Z,8.03
2018-12-08T23:24:19.314Z,8.10
2018-12-08T23:26:57.687Z,7.47
2018-12-08T23:29:25.966Z,6.50
2018-12-08T23:31:54.295Z,7.00
2018-12-08T23:34:22.593Z,7.27
2018-12-08T23:36:50.853Z,6.73
2018-12-08T23:39:19.097Z,6.60
2018-12-08T23:41:48.171Z,7.23
2018-12-08T23:44:29.119Z,6.20
2018-12-08T23:46:57.426Z,6.30
2018-12-08T23:49:26.427Z,6.30
2018-12-08T23:51:54.848Z,6.10
2018-12-08T23:54:23.396Z,6.63
2018-12-08T23:56:53.693Z,5.43
2018-12-08T23:59:22.057Z,5.70
